Aviation Digital Data Service (ADDS)

Output produced by METARs form (0444 UTC 19 February 2019)
found at http://www.aviationweather.gov/metar/data/
 
METAR text: VGHS 190430Z 09003KT 2200 HZ NSC 24/16 Q1016 BECMG S/VIS 3000M
Conditions at: VGHS (DHAKA , BD) observed 0430 UTC 19 February 2019
Temperature: 24.0°C (75°F)
Dewpoint: 16.0°C (61°F) [RH = 61%]
Pressure (altimeter): 30.00 inches Hg (1016.0 mb)
Winds: from the E (90 degrees) at 3 MPH (3 knots; 1.5 m/s)
Visibility: 1.37 miles (2.20 km)
Ceiling: at least 12,000 feet AGL
Clouds: sky clear below 12,000 feet AGL
Weather: HZ  (haze)

METAR text: VGHS 190400Z 16006KT 2000 HZ NSC 23/16 Q1016 BECMG S/VIS 2500M
Conditions at: VGHS (DHAKA , BD) observed 0400 UTC 19 February 2019
Temperature: 23.0°C (73°F)
Dewpoint: 16.0°C (61°F) [RH = 65%]
Pressure (altimeter): 30.00 inches Hg (1016.0 mb)
Winds: from the SSE (160 degrees) at 7 MPH (6 knots; 3.1 m/s)
Visibility: 1.24 miles (2.00 km)
Ceiling: at least 12,000 feet AGL
Clouds: sky clear below 12,000 feet AGL
Weather: HZ  (haze)

METAR text: VGHS 190330Z 09005KT 1800 HZ NSC 22/14 Q1016 BECMG S/VIS 2500M
Conditions at: VGHS (DHAKA , BD) observed 0330 UTC 19 February 2019
Temperature: 22.0°C (72°F)
Dewpoint: 14.0°C (57°F) [RH = 60%]
Pressure (altimeter): 30.00 inches Hg (1016.0 mb)
Winds: from the E (90 degrees) at 6 MPH (5 knots; 2.6 m/s)
Visibility: 1.12 miles (1.80 km)
Ceiling: at least 12,000 feet AGL
Clouds: sky clear below 12,000 feet AGL
Weather: HZ  (haze)

METAR text: VGHS 190300Z 13003KT 1700 HZ NSC 21/15 Q1016 BECMG S/VIS 2000M
Conditions at: VGHS (DHAKA , BD) observed 0300 UTC 19 February 2019
Temperature: 21.0°C (70°F)
Dewpoint: 15.0°C (59°F) [RH = 69%]
Pressure (altimeter): 30.00 inches Hg (1016.0 mb)
Winds: from the SE (130 degrees) at 3 MPH (3 knots; 1.5 m/s)
Visibility: 1.06 miles (1.71 km)
Ceiling: at least 12,000 feet AGL
Clouds: sky clear below 12,000 feet AGL
Weather: HZ  (haze)

METAR text: VGHS 190230Z 09003KT 1500 BR NSC 20/16 Q1015 BECMG S/VIS 2000M
Conditions at: VGHS (DHAKA , BD) observed 0230 UTC 19 February 2019
Temperature: 20.0°C (68°F)
Dewpoint: 16.0°C (61°F) [RH = 78%]
Pressure (altimeter): 29.97 inches Hg (1015.0 mb)
Winds: from the E (90 degrees) at 3 MPH (3 knots; 1.5 m/s)
Visibility: 0.93 miles (1.50 km)
Ceiling: at least 12,000 feet AGL
Clouds: sky clear below 12,000 feet AGL
Weather: BR  (mist)

METAR text: VGHS 190200Z 00000KT 1300 BR NSC 19/15 Q1015 BECMG S/VIS 1500M
Conditions at: VGHS (DHAKA , BD) observed 0200 UTC 19 February 2019
Temperature: 19.0°C (66°F)
Dewpoint: 15.0°C (59°F) [RH = 78%]
Pressure (altimeter): 29.97 inches Hg (1015.0 mb)
Winds: calm
Visibility: 0.81 miles (1.30 km)
Ceiling: at least 12,000 feet AGL
Clouds: sky clear below 12,000 feet AGL
Weather: BR  (mist)

METAR text: VGHS 190130Z 00000KT 1300 BR NSC 18/15 Q1014 NOSIG
Conditions at: VGHS (DHAKA , BD) observed 0130 UTC 19 February 2019
Temperature: 18.0°C (64°F)
Dewpoint: 15.0°C (59°F) [RH = 83%]
Pressure (altimeter): 29.94 inches Hg (1014.0 mb)
Winds: calm
Visibility: 0.81 miles (1.30 km)
Ceiling: at least 12,000 feet AGL
Clouds: sky clear below 12,000 feet AGL
Weather: BR  (mist)

METAR text: VGHS 190100Z 10004KT 1500 BR NSC 17/14 Q1014 TEMPO S/VIS 1200M
Conditions at: VGHS (DHAKA , BD) observed 0100 UTC 19 February 2019
Temperature: 17.0°C (63°F)
Dewpoint: 14.0°C (57°F) [RH = 82%]
Pressure (altimeter): 29.94 inches Hg (1014.0 mb)
Winds: from the E (100 degrees) at 5 MPH (4 knots; 2.1 m/s)
Visibility: 0.93 miles (1.50 km)
Ceiling: at least 12,000 feet AGL
Clouds: sky clear below 12,000 feet AGL
Weather: BR  (mist)

METAR text: VGHS 190030Z 09004KT 1600 BR NSC 16/14 Q1013 TEMPO S/VIS 1400M
Conditions at: VGHS (DHAKA , BD) observed 0030 UTC 19 February 2019
Temperature: 16.0°C (61°F)
Dewpoint: 14.0°C (57°F) [RH = 88%]
Pressure (altimeter): 29.91 inches Hg (1013.0 mb)
Winds: from the E (90 degrees) at 5 MPH (4 knots; 2.1 m/s)
Visibility: 0.99 miles (1.59 km)
Ceiling: at least 12,000 feet AGL
Clouds: sky clear below 12,000 feet AGL
Weather: BR  (mist)

METAR text: VGHS 190000Z 10004KT 1800 BR NSC 17/15 Q1012 TEMPO S/VIS 1500M
Conditions at: VGHS (DHAKA , BD) observed 0000 UTC 19 February 2019
Temperature: 17.0°C (63°F)
Dewpoint: 15.0°C (59°F) [RH = 88%]
Pressure (altimeter): 29.88 inches Hg (1012.0 mb)
Winds: from the E (100 degrees) at 5 MPH (4 knots; 2.1 m/s)
Visibility: 1.12 miles (1.80 km)
Ceiling: at least 12,000 feet AGL
Clouds: sky clear below 12,000 feet AGL
Weather: BR  (mist)

METAR text: VGHS 182330Z 08003KT 2000 BR NSC 17/14 Q1012 TEMPO S/VIS 1500M
Conditions at: VGHS (DHAKA , BD) observed 2330 UTC 18 February 2019
Temperature: 17.0°C (63°F)
Dewpoint: 14.0°C (57°F) [RH = 82%]
Pressure (altimeter): 29.88 inches Hg (1012.0 mb)
Winds: from the E (80 degrees) at 3 MPH (3 knots; 1.5 m/s)
Visibility: 1.24 miles (2.00 km)
Ceiling: at least 12,000 feet AGL
Clouds: sky clear below 12,000 feet AGL
Weather: BR  (mist)

METAR text: VGHS 182300Z 09003KT 2200 BR NSC 18/15 Q1011 TEMPO S/VIS 2000M
Conditions at: VGHS (DHAKA , BD) observed 2300 UTC 18 February 2019
Temperature: 18.0°C (64°F)
Dewpoint: 15.0°C (59°F) [RH = 83%]
Pressure (altimeter): 29.85 inches Hg (1011.0 mb)
Winds: from the E (90 degrees) at 3 MPH (3 knots; 1.5 m/s)
Visibility: 1.37 miles (2.20 km)
Ceiling: at least 12,000 feet AGL
Clouds: sky clear below 12,000 feet AGL
Weather: BR  (mist)

METAR text: VGHS 182230Z 00000KT 2500 BR NSC 18/14 Q1011 TEMPO S/VIS 2000M
Conditions at: VGHS (DHAKA , BD) observed 2230 UTC 18 February 2019
Temperature: 18.0°C (64°F)
Dewpoint: 14.0°C (57°F) [RH = 77%]
Pressure (altimeter): 29.85 inches Hg (1011.0 mb)
Winds: calm
Visibility: 1.55 miles (2.49 km)
Ceiling: at least 12,000 feet AGL
Clouds: sky clear below 12,000 feet AGL
Weather: BR  (mist)

METAR text: VGHS 182200Z 00000KT 3200 HZ NSC 19/14 Q1011 TEMPO S/VIS 2500M
Conditions at: VGHS (DHAKA , BD) observed 2200 UTC 18 February 2019
Temperature: 19.0°C (66°F)
Dewpoint: 14.0°C (57°F) [RH = 73%]
Pressure (altimeter): 29.85 inches Hg (1011.0 mb)
Winds: calm
Visibility: 1.99 miles (3.20 km)
Ceiling: at least 12,000 feet AGL
Clouds: sky clear below 12,000 feet AGL
Weather: HZ  (haze)

METAR text: VGHS 182130Z 07004KT 3500 HZ NSC 20/12 Q1011 NOSIG
Conditions at: VGHS (DHAKA , BD) observed 2130 UTC 18 February 2019
Temperature: 20.0°C (68°F)
Dewpoint: 12.0°C (54°F) [RH = 60%]
Pressure (altimeter): 29.85 inches Hg (1011.0 mb)
Winds: from the ENE (70 degrees) at 5 MPH (4 knots; 2.1 m/s)
Visibility: 2.17 miles (3.49 km)
Ceiling: at least 12,000 feet AGL
Clouds: sky clear below 12,000 feet AGL
Weather: HZ  (haze)

METAR text: VGHS 182100Z 06003KT 3500 HZ NSC 20/12 Q1012 NOSIG
Conditions at: VGHS (DHAKA , BD) observed 2100 UTC 18 February 2019
Temperature: 20.0°C (68°F)
Dewpoint: 12.0°C (54°F) [RH = 60%]
Pressure (altimeter): 29.88 inches Hg (1012.0 mb)
Winds: from the ENE (60 degrees) at 3 MPH (3 knots; 1.5 m/s)
Visibility: 2.17 miles (3.49 km)
Ceiling: at least 12,000 feet AGL
Clouds: sky clear below 12,000 feet AGL
Weather: HZ  (haze)

METAR text: VGHS 182030Z 00000KT 3500 HZ NSC 20/12 Q1012 NOSIG
Conditions at: VGHS (DHAKA , BD) observed 2030 UTC 18 February 2019
Temperature: 20.0°C (68°F)
Dewpoint: 12.0°C (54°F) [RH = 60%]
Pressure (altimeter): 29.88 inches Hg (1012.0 mb)
Winds: calm
Visibility: 2.17 miles (3.49 km)
Ceiling: at least 12,000 feet AGL
Clouds: sky clear below 12,000 feet AGL
Weather: HZ  (haze)

METAR text: VGHS 182000Z 00000KT 3500 HZ NSC 20/12 Q1012 NOSIG
Conditions at: VGHS (DHAKA , BD) observed 2000 UTC 18 February 2019
Temperature: 20.0°C (68°F)
Dewpoint: 12.0°C (54°F) [RH = 60%]
Pressure (altimeter): 29.88 inches Hg (1012.0 mb)
Winds: calm
Visibility: 2.17 miles (3.49 km)
Ceiling: at least 12,000 feet AGL
Clouds: sky clear below 12,000 feet AGL
Weather: HZ  (haze)

METAR text: VGHS 181930Z 00000KT 3500 HZ NSC 20/12 Q1012 NOSIG
Conditions at: VGHS (DHAKA , BD) observed 1930 UTC 18 February 2019
Temperature: 20.0°C (68°F)
Dewpoint: 12.0°C (54°F) [RH = 60%]
Pressure (altimeter): 29.88 inches Hg (1012.0 mb)
Winds: calm
Visibility: 2.17 miles (3.49 km)
Ceiling: at least 12,000 feet AGL
Clouds: sky clear below 12,000 feet AGL
Weather: HZ  (haze)

METAR text: VGHS 181900Z 00000KT 3500 HZ NSC 20/12 Q1012 NOSIG
Conditions at: VGHS (DHAKA , BD) observed 1900 UTC 18 February 2019
Temperature: 20.0°C (68°F)
Dewpoint: 12.0°C (54°F) [RH = 60%]
Pressure (altimeter): 29.88 inches Hg (1012.0 mb)
Winds: calm
Visibility: 2.17 miles (3.49 km)
Ceiling: at least 12,000 feet AGL
Clouds: sky clear below 12,000 feet AGL
Weather: HZ  (haze)

METAR text: VGHS 181830Z 00000KT 3500 HZ NSC 21/12 Q1012 NOSIG
Conditions at: VGHS (DHAKA , BD) observed 1830 UTC 18 February 2019
Temperature: 21.0°C (70°F)
Dewpoint: 12.0°C (54°F) [RH = 56%]
Pressure (altimeter): 29.88 inches Hg (1012.0 mb)
Winds: calm
Visibility: 2.17 miles (3.49 km)
Ceiling: at least 12,000 feet AGL
Clouds: sky clear below 12,000 feet AGL
Weather: HZ  (haze)

METAR text: VGHS 181800Z 00000KT 3500 HZ NSC 21/12 Q1012 NOSIG
Conditions at: VGHS (DHAKA , BD) observed 1800 UTC 18 February 2019
Temperature: 21.0°C (70°F)
Dewpoint: 12.0°C (54°F) [RH = 56%]
Pressure (altimeter): 29.88 inches Hg (1012.0 mb)
Winds: calm
Visibility: 2.17 miles (3.49 km)
Ceiling: at least 12,000 feet AGL
Clouds: sky clear below 12,000 feet AGL
Weather: HZ  (haze)

METAR text: VGHS 181730Z 00000KT 3500 HZ NSC 21/12 Q1013 NOSIG
Conditions at: VGHS (DHAKA , BD) observed 1730 UTC 18 February 2019
Temperature: 21.0°C (70°F)
Dewpoint: 12.0°C (54°F) [RH = 56%]
Pressure (altimeter): 29.91 inches Hg (1013.0 mb)
Winds: calm
Visibility: 2.17 miles (3.49 km)
Ceiling: at least 12,000 feet AGL
Clouds: sky clear below 12,000 feet AGL
Weather: HZ  (haze)

METAR text: VGHS 181700Z 00000KT 3500 HZ NSC 21/12 Q1013 NOSIG
Conditions at: VGHS (DHAKA , BD) observed 1700 UTC 18 February 2019
Temperature: 21.0°C (70°F)
Dewpoint: 12.0°C (54°F) [RH = 56%]
Pressure (altimeter): 29.91 inches Hg (1013.0 mb)
Winds: calm
Visibility: 2.17 miles (3.49 km)
Ceiling: at least 12,000 feet AGL
Clouds: sky clear below 12,000 feet AGL
Weather: HZ  (haze)

METAR text: VGHS 181630Z 00000KT 3500 HZ NSC 21/12 Q1012 NOSIG
Conditions at: VGHS (DHAKA , BD) observed 1630 UTC 18 February 2019
Temperature: 21.0°C (70°F)
Dewpoint: 12.0°C (54°F) [RH = 56%]
Pressure (altimeter): 29.88 inches Hg (1012.0 mb)
Winds: calm
Visibility: 2.17 miles (3.49 km)
Ceiling: at least 12,000 feet AGL
Clouds: sky clear below 12,000 feet AGL
Weather: HZ  (haze)

METAR text: VGHS 181600Z 00000KT 3500 HZ NSC 21/12 Q1012 NOSIG
Conditions at: VGHS (DHAKA , BD) observed 1600 UTC 18 February 2019
Temperature: 21.0°C (70°F)
Dewpoint: 12.0°C (54°F) [RH = 56%]
Pressure (altimeter): 29.88 inches Hg (1012.0 mb)
Winds: calm
Visibility: 2.17 miles (3.49 km)
Ceiling: at least 12,000 feet AGL
Clouds: sky clear below 12,000 feet AGL
Weather: HZ  (haze)

METAR text: VGHS 181530Z 00000KT 3500 HZ NSC 22/13 Q1012 NOSIG
Conditions at: VGHS (DHAKA , BD) observed 1530 UTC 18 February 2019
Temperature: 22.0°C (72°F)
Dewpoint: 13.0°C (55°F) [RH = 57%]
Pressure (altimeter): 29.88 inches Hg (1012.0 mb)
Winds: calm
Visibility: 2.17 miles (3.49 km)
Ceiling: at least 12,000 feet AGL
Clouds: sky clear below 12,000 feet AGL
Weather: HZ  (haze)

METAR text: VGHS 181500Z 00000KT 3500 HZ NSC 22/13 Q1012 NOSIG
Conditions at: VGHS (DHAKA , BD) observed 1500 UTC 18 February 2019
Temperature: 22.0°C (72°F)
Dewpoint: 13.0°C (55°F) [RH = 57%]
Pressure (altimeter): 29.88 inches Hg (1012.0 mb)
Winds: calm
Visibility: 2.17 miles (3.49 km)
Ceiling: at least 12,000 feet AGL
Clouds: sky clear below 12,000 feet AGL
Weather: HZ  (haze)

METAR text: VGHS 181430Z 00000KT 3500 HZ NSC 22/12 Q1012 NOSIG
Conditions at: VGHS (DHAKA , BD) observed 1430 UTC 18 February 2019
Temperature: 22.0°C (72°F)
Dewpoint: 12.0°C (54°F) [RH = 53%]
Pressure (altimeter): 29.88 inches Hg (1012.0 mb)
Winds: calm
Visibility: 2.17 miles (3.49 km)
Ceiling: at least 12,000 feet AGL
Clouds: sky clear below 12,000 feet AGL
Weather: HZ  (haze)

METAR text: VGHS 181400Z 00000KT 3500 HZ NSC 23/12 Q1011 NOSIG
Conditions at: VGHS (DHAKA , BD) observed 1400 UTC 18 February 2019
Temperature: 23.0°C (73°F)
Dewpoint: 12.0°C (54°F) [RH = 50%]
Pressure (altimeter): 29.85 inches Hg (1011.0 mb)
Winds: calm
Visibility: 2.17 miles (3.49 km)
Ceiling: at least 12,000 feet AGL
Clouds: sky clear below 12,000 feet AGL
Weather: HZ  (haze)

METAR text: VGHS 181330Z 00000KT 3500 HZ NSC 23/11 Q1011 NOSIG
Conditions at: VGHS (DHAKA , BD) observed 1330 UTC 18 February 2019
Temperature: 23.0°C (73°F)
Dewpoint: 11.0°C (52°F) [RH = 47%]
Pressure (altimeter): 29.85 inches Hg (1011.0 mb)
Winds: calm
Visibility: 2.17 miles (3.49 km)
Ceiling: at least 12,000 feet AGL
Clouds: sky clear below 12,000 feet AGL
Weather: HZ  (haze)

METAR text: VGHS 181300Z 00000KT 3500 HZ NSC 23/11 Q1010 NOSIG
Conditions at: VGHS (DHAKA , BD) observed 1300 UTC 18 February 2019
Temperature: 23.0°C (73°F)
Dewpoint: 11.0°C (52°F) [RH = 47%]
Pressure (altimeter): 29.82 inches Hg (1010.0 mb)
Winds: calm
Visibility: 2.17 miles (3.49 km)
Ceiling: at least 12,000 feet AGL
Clouds: sky clear below 12,000 feet AGL
Weather: HZ  (haze)

METAR text: VGHS 181230Z 24003KT 3500 HZ NSC 25/12 Q1010 NOSIG
Conditions at: VGHS (DHAKA , BD) observed 1230 UTC 18 February 2019
Temperature: 25.0°C (77°F)
Dewpoint: 12.0°C (54°F) [RH = 44%]
Pressure (altimeter): 29.82 inches Hg (1010.0 mb)
Winds: from the WSW (240 degrees) at 3 MPH (3 knots; 1.5 m/s)
Visibility: 2.17 miles (3.49 km)
Ceiling: at least 12,000 feet AGL
Clouds: sky clear below 12,000 feet AGL
Weather: HZ  (haze)

METAR text: VGHS 181200Z 24004KT 3500 HZ NSC 25/12 Q1010 NOSIG
Conditions at: VGHS (DHAKA , BD) observed 1200 UTC 18 February 2019
Temperature: 25.0°C (77°F)
Dewpoint: 12.0°C (54°F) [RH = 44%]
Pressure (altimeter): 29.82 inches Hg (1010.0 mb)
Winds: from the WSW (240 degrees) at 5 MPH (4 knots; 2.1 m/s)
Visibility: 2.17 miles (3.49 km)
Ceiling: at least 12,000 feet AGL
Clouds: sky clear below 12,000 feet AGL
Weather: HZ  (haze)

METAR text: VGHS 181130Z 27003KT 3500 HZ NSC 26/12 Q1010 NOSIG
Conditions at: VGHS (DHAKA , BD) observed 1130 UTC 18 February 2019
Temperature: 26.0°C (79°F)
Dewpoint: 12.0°C (54°F) [RH = 42%]
Pressure (altimeter): 29.82 inches Hg (1010.0 mb)
Winds: from the W (270 degrees) at 3 MPH (3 knots; 1.5 m/s)
Visibility: 2.17 miles (3.49 km)
Ceiling: at least 12,000 feet AGL
Clouds: sky clear below 12,000 feet AGL
Weather: HZ  (haze)

METAR text: VGHS 181100Z 25005KT 3500 HZ NSC 26/12 Q1009 NOSIG
Conditions at: VGHS (DHAKA , BD) observed 1100 UTC 18 February 2019
Temperature: 26.0°C (79°F)
Dewpoint: 12.0°C (54°F) [RH = 42%]
Pressure (altimeter): 29.79 inches Hg (1009.0 mb)
Winds: from the WSW (250 degrees) at 6 MPH (5 knots; 2.6 m/s)
Visibility: 2.17 miles (3.49 km)
Ceiling: at least 12,000 feet AGL
Clouds: sky clear below 12,000 feet AGL
Weather: HZ  (haze)

METAR text: VGHS 181030Z 24005KT 3500 HZ NSC 26/12 Q1009 NOSIG
Conditions at: VGHS (DHAKA , BD) observed 1030 UTC 18 February 2019
Temperature: 26.0°C (79°F)
Dewpoint: 12.0°C (54°F) [RH = 42%]
Pressure (altimeter): 29.79 inches Hg (1009.0 mb)
Winds: from the WSW (240 degrees) at 6 MPH (5 knots; 2.6 m/s)
Visibility: 2.17 miles (3.49 km)
Ceiling: at least 12,000 feet AGL
Clouds: sky clear below 12,000 feet AGL
Weather: HZ  (haze)

METAR text: VGHS 181000Z 27004KT 3500 HZ NSC 27/12 Q1009 NOSIG
Conditions at: VGHS (DHAKA , BD) observed 1000 UTC 18 February 2019
Temperature: 27.0°C (81°F)
Dewpoint: 12.0°C (54°F) [RH = 39%]
Pressure (altimeter): 29.79 inches Hg (1009.0 mb)
Winds: from the W (270 degrees) at 5 MPH (4 knots; 2.1 m/s)
Visibility: 2.17 miles (3.49 km)
Ceiling: at least 12,000 feet AGL
Clouds: sky clear below 12,000 feet AGL
Weather: HZ  (haze)

METAR text: VGHS 180930Z 25005KT 3500 HZ NSC 27/11 Q1010 NOSIG
Conditions at: VGHS (DHAKA , BD) observed 0930 UTC 18 February 2019
Temperature: 27.0°C (81°F)
Dewpoint: 11.0°C (52°F) [RH = 37%]
Pressure (altimeter): 29.82 inches Hg (1010.0 mb)
Winds: from the WSW (250 degrees) at 6 MPH (5 knots; 2.6 m/s)
Visibility: 2.17 miles (3.49 km)
Ceiling: at least 12,000 feet AGL
Clouds: sky clear below 12,000 feet AGL
Weather: HZ  (haze)

METAR text: VGHS 180900Z 24006KT 3500 HZ NSC 27/10 Q1010 NOSIG
Conditions at: VGHS (DHAKA , BD) observed 0900 UTC 18 February 2019
Temperature: 27.0°C (81°F)
Dewpoint: 10.0°C (50°F) [RH = 34%]
Pressure (altimeter): 29.82 inches Hg (1010.0 mb)
Winds: from the WSW (240 degrees) at 7 MPH (6 knots; 3.1 m/s)
Visibility: 2.17 miles (3.49 km)
Ceiling: at least 12,000 feet AGL
Clouds: sky clear below 12,000 feet AGL
Weather: HZ  (haze)

METAR text: VGHS 180830Z 28005KT 3500 HZ NSC 28/13 Q1011 NOSIG
Conditions at: VGHS (DHAKA , BD) observed 0830 UTC 18 February 2019
Temperature: 28.0°C (82°F)
Dewpoint: 13.0°C (55°F) [RH = 40%]
Pressure (altimeter): 29.85 inches Hg (1011.0 mb)
Winds: from the W (280 degrees) at 6 MPH (5 knots; 2.6 m/s)
Visibility: 2.17 miles (3.49 km)
Ceiling: at least 12,000 feet AGL
Clouds: sky clear below 12,000 feet AGL
Weather: HZ  (haze)

METAR text: VGHS 180800Z 29004KT 3200 HZ NSC 27/14 Q1011 NOSIG
Conditions at: VGHS (DHAKA , BD) observed 0800 UTC 18 February 2019
Temperature: 27.0°C (81°F)
Dewpoint: 14.0°C (57°F) [RH = 45%]
Pressure (altimeter): 29.85 inches Hg (1011.0 mb)
Winds: from the WNW (290 degrees) at 5 MPH (4 knots; 2.1 m/s)
Visibility: 1.99 miles (3.20 km)
Ceiling: at least 12,000 feet AGL
Clouds: sky clear below 12,000 feet AGL
Weather: HZ  (haze)

METAR text: VGHS 180730Z 21005KT 3000 HZ NSC 25/16 Q1012 BECMG S/VIS 3500M
Conditions at: VGHS (DHAKA , BD) observed 0730 UTC 18 February 2019
Temperature: 25.0°C (77°F)
Dewpoint: 16.0°C (61°F) [RH = 57%]
Pressure (altimeter): 29.88 inches Hg (1012.0 mb)
Winds: from the SSW (210 degrees) at 6 MPH (5 knots; 2.6 m/s)
Visibility: 1.86 miles (2.99 km)
Ceiling: at least 12,000 feet AGL
Clouds: sky clear below 12,000 feet AGL
Weather: HZ  (haze)

METAR text: VGHS 180700Z 22005KT 3000 HZ NSC 25/16 Q1012 BECMG S/VIS 3000M
Conditions at: VGHS (DHAKA , BD) observed 0700 UTC 18 February 2019
Temperature: 25.0°C (77°F)
Dewpoint: 16.0°C (61°F) [RH = 57%]
Pressure (altimeter): 29.88 inches Hg (1012.0 mb)
Winds: from the SW (220 degrees) at 6 MPH (5 knots; 2.6 m/s)
Visibility: 1.86 miles (2.99 km)
Ceiling: at least 12,000 feet AGL
Clouds: sky clear below 12,000 feet AGL
Weather: HZ  (haze)

METAR text: VGHS 180630Z 26004KT 2500 HZ NSC 25/17 Q1013 BECMG S/VIS 3000M
Conditions at: VGHS (DHAKA , BD) observed 0630 UTC 18 February 2019
Temperature: 25.0°C (77°F)
Dewpoint: 17.0°C (63°F) [RH = 61%]
Pressure (altimeter): 29.91 inches Hg (1013.0 mb)
Winds: from the W (260 degrees) at 5 MPH (4 knots; 2.1 m/s)
Visibility: 1.55 miles (2.49 km)
Ceiling: at least 12,000 feet AGL
Clouds: sky clear below 12,000 feet AGL
Weather: HZ  (haze)

METAR text: VGHS 180600Z 26004KT 2500 HZ NSC 25/17 Q1013 BECMG S/VIS 3000M
Conditions at: VGHS (DHAKA , BD) observed 0600 UTC 18 February 2019
Temperature: 25.0°C (77°F)
Dewpoint: 17.0°C (63°F) [RH = 61%]
Pressure (altimeter): 29.91 inches Hg (1013.0 mb)
Winds: from the W (260 degrees) at 5 MPH (4 knots; 2.1 m/s)
Visibility: 1.55 miles (2.49 km)
Ceiling: at least 12,000 feet AGL
Clouds: sky clear below 12,000 feet AGL
Weather: HZ  (haze)

METAR text: VGHS 180530Z 27004KT 2000 HZ NSC 24/17 Q1014 BECMG S/VIS 2500M
Conditions at: VGHS (DHAKA , BD) observed 0530 UTC 18 February 2019
Temperature: 24.0°C (75°F)
Dewpoint: 17.0°C (63°F) [RH = 65%]
Pressure (altimeter): 29.94 inches Hg (1014.0 mb)
Winds: from the W (270 degrees) at 5 MPH (4 knots; 2.1 m/s)
Visibility: 1.24 miles (2.00 km)
Ceiling: at least 12,000 feet AGL
Clouds: sky clear below 12,000 feet AGL
Weather: HZ  (haze)

METAR text: VGHS 180500Z 33003KT 2000 HZ NSC 24/17 Q1014 BECMG S/VIS 2500M
Conditions at: VGHS (DHAKA , BD) observed 0500 UTC 18 February 2019
Temperature: 24.0°C (75°F)
Dewpoint: 17.0°C (63°F) [RH = 65%]
Pressure (altimeter): 29.94 inches Hg (1014.0 mb)
Winds: from the NNW (330 degrees) at 3 MPH (3 knots; 1.5 m/s)
Visibility: 1.24 miles (2.00 km)
Ceiling: at least 12,000 feet AGL
Clouds: sky clear below 12,000 feet AGL
Weather: HZ  (haze)

METAR text: VGHS 180430Z 32005KT 1800 HZ NSC 23/18 Q1014 BECMG S/VIS 2000M
Conditions at: VGHS (DHAKA , BD) observed 0430 UTC 18 February 2019
Temperature: 23.0°C (73°F)
Dewpoint: 18.0°C (64°F) [RH = 73%]
Pressure (altimeter): 29.94 inches Hg (1014.0 mb)
Winds: from the NW (320 degrees) at 6 MPH (5 knots; 2.6 m/s)
Visibility: 1.12 miles (1.80 km)
Ceiling: at least 12,000 feet AGL
Clouds: sky clear below 12,000 feet AGL
Weather: HZ  (haze)

METAR text: VGHS 180400Z 31004KT 1500 BR NSC 22/18 Q1015 BECMG S/VIS 2000M
Conditions at: VGHS (DHAKA , BD) observed 0400 UTC 18 February 2019
Temperature: 22.0°C (72°F)
Dewpoint: 18.0°C (64°F) [RH = 78%]
Pressure (altimeter): 29.97 inches Hg (1015.0 mb)
Winds: from the NW (310 degrees) at 5 MPH (4 knots; 2.1 m/s)
Visibility: 0.93 miles (1.50 km)
Ceiling: at least 12,000 feet AGL
Clouds: sky clear below 12,000 feet AGL
Weather: BR  (mist)

METAR text: VGHS 180330Z 29003KT 1400 BR NSC 21/17 Q1015 BECMG S/VIS 1800M
Conditions at: VGHS (DHAKA , BD) observed 0330 UTC 18 February 2019
Temperature: 21.0°C (70°F)
Dewpoint: 17.0°C (63°F) [RH = 78%]
Pressure (altimeter): 29.97 inches Hg (1015.0 mb)
Winds: from the WNW (290 degrees) at 3 MPH (3 knots; 1.5 m/s)
Visibility: 0.87 miles (1.40 km)
Ceiling: at least 12,000 feet AGL
Clouds: sky clear below 12,000 feet AGL
Weather: BR  (mist)

METAR text: VGHS 180300Z 27003KT 1200 BR NSC 19/15 Q1014 BECMG S/VIS 1500M
Conditions at: VGHS (DHAKA , BD) observed 0300 UTC 18 February 2019
Temperature: 19.0°C (66°F)
Dewpoint: 15.0°C (59°F) [RH = 78%]
Pressure (altimeter): 29.94 inches Hg (1014.0 mb)
Winds: from the W (270 degrees) at 3 MPH (3 knots; 1.5 m/s)
Visibility: 0.75 miles (1.21 km)
Ceiling: at least 12,000 feet AGL
Clouds: sky clear below 12,000 feet AGL
Weather: BR  (mist)

METAR text: VGHS 180230Z 00000KT 1200 BR NSC 18/15 Q1014 BECMG S/VIS 1500M
Conditions at: VGHS (DHAKA , BD) observed 0230 UTC 18 February 2019
Temperature: 18.0°C (64°F)
Dewpoint: 15.0°C (59°F) [RH = 83%]
Pressure (altimeter): 29.94 inches Hg (1014.0 mb)
Winds: calm
Visibility: 0.75 miles (1.21 km)
Ceiling: at least 12,000 feet AGL
Clouds: sky clear below 12,000 feet AGL
Weather: BR  (mist)

METAR text: VGHS 180200Z 00000KT 1000 BR NSC 16/14 Q1013 BECMG S/VIS 1200M
Conditions at: VGHS (DHAKA , BD) observed 0200 UTC 18 February 2019
Temperature: 16.0°C (61°F)
Dewpoint: 14.0°C (57°F) [RH = 88%]
Pressure (altimeter): 29.91 inches Hg (1013.0 mb)
Winds: calm
Visibility: 0.62 miles (1.00 km)
Ceiling: at least 12,000 feet AGL
Clouds: sky clear below 12,000 feet AGL
Weather: BR  (mist)

METAR text: VGHS 180130Z 00000KT 1000 BR FEW012 16/14 Q1013 NOSIG
Conditions at: VGHS (DHAKA , BD) observed 0130 UTC 18 February 2019
Temperature: 16.0°C (61°F)
Dewpoint: 14.0°C (57°F) [RH = 88%]
Pressure (altimeter): 29.91 inches Hg (1013.0 mb)
Winds: calm
Visibility: 0.62 miles (1.00 km)
Ceiling: at least 12,000 feet AGL
Clouds: few clouds at 1200 feet AGL
Weather: BR  (mist)

METAR text: VGHS 180100Z 33003KT 1200 BR SCT012 16/14 Q1012 TEMPO S/VIS 1000M
Conditions at: VGHS (DHAKA , BD) observed 0100 UTC 18 February 2019
Temperature: 16.0°C (61°F)
Dewpoint: 14.0°C (57°F) [RH = 88%]
Pressure (altimeter): 29.88 inches Hg (1012.0 mb)
Winds: from the NNW (330 degrees) at 3 MPH (3 knots; 1.5 m/s)
Visibility: 0.75 miles (1.21 km)
Ceiling: at least 12,000 feet AGL
Clouds: scattered clouds at 1200 feet AGL
Weather: BR  (mist)

METAR text: VGHS 180030Z 00000KT 1600 BR NSC 16/14 Q1011 TEMPO S/VIS 1200M
Conditions at: VGHS (DHAKA , BD) observed 0030 UTC 18 February 2019
Temperature: 16.0°C (61°F)
Dewpoint: 14.0°C (57°F) [RH = 88%]
Pressure (altimeter): 29.85 inches Hg (1011.0 mb)
Winds: calm
Visibility: 0.99 miles (1.59 km)
Ceiling: at least 12,000 feet AGL
Clouds: sky clear below 12,000 feet AGL
Weather: BR  (mist)

METAR text: VGHS 180000Z 00000KT 1800 BR NSC 16/14 Q1011 TEMPO S/VIS 1500M
Conditions at: VGHS (DHAKA , BD) observed 0000 UTC 18 February 2019
Temperature: 16.0°C (61°F)
Dewpoint: 14.0°C (57°F) [RH = 88%]
Pressure (altimeter): 29.85 inches Hg (1011.0 mb)
Winds: calm
Visibility: 1.12 miles (1.80 km)
Ceiling: at least 12,000 feet AGL
Clouds: sky clear below 12,000 feet AGL
Weather: BR  (mist)

METAR text: VGHS 172330Z 00000KT 2000 BR NSC 16/14 Q1011 TEMPO S/VIS 1500M
Conditions at: VGHS (DHAKA , BD) observed 2330 UTC 17 February 2019
Temperature: 16.0°C (61°F)
Dewpoint: 14.0°C (57°F) [RH = 88%]
Pressure (altimeter): 29.85 inches Hg (1011.0 mb)
Winds: calm
Visibility: 1.24 miles (2.00 km)
Ceiling: at least 12,000 feet AGL
Clouds: sky clear below 12,000 feet AGL
Weather: BR  (mist)

METAR text: VGHS 172300Z 00000KT 2000 BR NSC 16/14 Q1011 TEMPO S/VIS 1500M
Conditions at: VGHS (DHAKA , BD) observed 2300 UTC 17 February 2019
Temperature: 16.0°C (61°F)
Dewpoint: 14.0°C (57°F) [RH = 88%]
Pressure (altimeter): 29.85 inches Hg (1011.0 mb)
Winds: calm
Visibility: 1.24 miles (2.00 km)
Ceiling: at least 12,000 feet AGL
Clouds: sky clear below 12,000 feet AGL
Weather: BR  (mist)

METAR text: VGHS 172230Z 00000KT 2300 BR NSC 16/13 Q1010 TEMPO S/VIS 1800M
Conditions at: VGHS (DHAKA , BD) observed 2230 UTC 17 February 2019
Temperature: 16.0°C (61°F)
Dewpoint: 13.0°C (55°F) [RH = 82%]
Pressure (altimeter): 29.82 inches Hg (1010.0 mb)
Winds: calm
Visibility: 1.43 miles (2.30 km)
Ceiling: at least 12,000 feet AGL
Clouds: sky clear below 12,000 feet AGL
Weather: BR  (mist)

METAR text: VGHS 172200Z 14003KT 2500 BR NSC 16/13 Q1010 TEMPO S/VIS 2000M
Conditions at: VGHS (DHAKA , BD) observed 2200 UTC 17 February 2019
Temperature: 16.0°C (61°F)
Dewpoint: 13.0°C (55°F) [RH = 82%]
Pressure (altimeter): 29.82 inches Hg (1010.0 mb)
Winds: from the SE (140 degrees) at 3 MPH (3 knots; 1.5 m/s)
Visibility: 1.55 miles (2.49 km)
Ceiling: at least 12,000 feet AGL
Clouds: sky clear below 12,000 feet AGL
Weather: BR  (mist)

METAR text: VGHS 172130Z 00000KT 2500 BR NSC 16/13 Q1010 TEMPO S/VIS 2000M
Conditions at: VGHS (DHAKA , BD) observed 2130 UTC 17 February 2019
Temperature: 16.0°C (61°F)
Dewpoint: 13.0°C (55°F) [RH = 82%]
Pressure (altimeter): 29.82 inches Hg (1010.0 mb)
Winds: calm
Visibility: 1.55 miles (2.49 km)
Ceiling: at least 12,000 feet AGL
Clouds: sky clear below 12,000 feet AGL
Weather: BR  (mist)

METAR text: VGHS 172100Z 00000KT 2700 BR NSC 16/13 Q1010 TEMPO S/VIS 2200M
Conditions at: VGHS (DHAKA , BD) observed 2100 UTC 17 February 2019
Temperature: 16.0°C (61°F)
Dewpoint: 13.0°C (55°F) [RH = 82%]
Pressure (altimeter): 29.82 inches Hg (1010.0 mb)
Winds: calm
Visibility: 1.68 miles (2.70 km)
Ceiling: at least 12,000 feet AGL
Clouds: sky clear below 12,000 feet AGL
Weather: BR  (mist)

METAR text: VGHS 172030Z 10004KT 2800 BR NSC 16/13 Q1011 TEMPO S/VIS 2300M
Conditions at: VGHS (DHAKA , BD) observed 2030 UTC 17 February 2019
Temperature: 16.0°C (61°F)
Dewpoint: 13.0°C (55°F) [RH = 82%]
Pressure (altimeter): 29.85 inches Hg (1011.0 mb)
Winds: from the E (100 degrees) at 5 MPH (4 knots; 2.1 m/s)
Visibility: 1.74 miles (2.80 km)
Ceiling: at least 12,000 feet AGL
Clouds: sky clear below 12,000 feet AGL
Weather: BR  (mist)

METAR text: VGHS 172000Z 15003KT 2800 BR NSC 16/13 Q1011 TEMPO S/VIS 2300M
Conditions at: VGHS (DHAKA , BD) observed 2000 UTC 17 February 2019
Temperature: 16.0°C (61°F)
Dewpoint: 13.0°C (55°F) [RH = 82%]
Pressure (altimeter): 29.85 inches Hg (1011.0 mb)
Winds: from the SSE (150 degrees) at 3 MPH (3 knots; 1.5 m/s)
Visibility: 1.74 miles (2.80 km)
Ceiling: at least 12,000 feet AGL
Clouds: sky clear below 12,000 feet AGL
Weather: BR  (mist)

METAR text: VGHS 171930Z 00000KT 2800 BR NSC 16/13 Q1011 TEMPO S/VIS 2300M
Conditions at: VGHS (DHAKA , BD) observed 1930 UTC 17 February 2019
Temperature: 16.0°C (61°F)
Dewpoint: 13.0°C (55°F) [RH = 82%]
Pressure (altimeter): 29.85 inches Hg (1011.0 mb)
Winds: calm
Visibility: 1.74 miles (2.80 km)
Ceiling: at least 12,000 feet AGL
Clouds: sky clear below 12,000 feet AGL
Weather: BR  (mist)

METAR text: VGHS 171900Z 00000KT 3200 HZ NSC 17/14 Q1011 TEMPO S/VIS 2500M
Conditions at: VGHS (DHAKA , BD) observed 1900 UTC 17 February 2019
Temperature: 17.0°C (63°F)
Dewpoint: 14.0°C (57°F) [RH = 82%]
Pressure (altimeter): 29.85 inches Hg (1011.0 mb)
Winds: calm
Visibility: 1.99 miles (3.20 km)
Ceiling: at least 12,000 feet AGL
Clouds: sky clear below 12,000 feet AGL
Weather: HZ  (haze)

METAR text: VGHS 171830Z 14003KT 3200 HZ NSC 17/14 Q1011 TEMPO S/VIS 2500M
Conditions at: VGHS (DHAKA , BD) observed 1830 UTC 17 February 2019
Temperature: 17.0°C (63°F)
Dewpoint: 14.0°C (57°F) [RH = 82%]
Pressure (altimeter): 29.85 inches Hg (1011.0 mb)
Winds: from the SE (140 degrees) at 3 MPH (3 knots; 1.5 m/s)
Visibility: 1.99 miles (3.20 km)
Ceiling: at least 12,000 feet AGL
Clouds: sky clear below 12,000 feet AGL
Weather: HZ  (haze)

METAR text: VGHS 171800Z 00000KT 3200 HZ NSC 17/14 Q1011 TEMPO S/VIS 2500M
Conditions at: VGHS (DHAKA , BD) observed 1800 UTC 17 February 2019
Temperature: 17.0°C (63°F)
Dewpoint: 14.0°C (57°F) [RH = 82%]
Pressure (altimeter): 29.85 inches Hg (1011.0 mb)
Winds: calm
Visibility: 1.99 miles (3.20 km)
Ceiling: at least 12,000 feet AGL
Clouds: sky clear below 12,000 feet AGL
Weather: HZ  (haze)

METAR text: VGHS 171730Z 00000KT 3200 HZ NSC 18/14 Q1012 NOSIG
Conditions at: VGHS (DHAKA , BD) observed 1730 UTC 17 February 2019
Temperature: 18.0°C (64°F)
Dewpoint: 14.0°C (57°F) [RH = 77%]
Pressure (altimeter): 29.88 inches Hg (1012.0 mb)
Winds: calm
Visibility: 1.99 miles (3.20 km)
Ceiling: at least 12,000 feet AGL
Clouds: sky clear below 12,000 feet AGL
Weather: HZ  (haze)

METAR text: VGHS 171700Z 00000KT 3500 HZ NSC 18/14 Q1012 NOSIG
Conditions at: VGHS (DHAKA , BD) observed 1700 UTC 17 February 2019
Temperature: 18.0°C (64°F)
Dewpoint: 14.0°C (57°F) [RH = 77%]
Pressure (altimeter): 29.88 inches Hg (1012.0 mb)
Winds: calm
Visibility: 2.17 miles (3.49 km)
Ceiling: at least 12,000 feet AGL
Clouds: sky clear below 12,000 feet AGL
Weather: HZ  (haze)

Forecast for: VGHS (DHAKA , BD)
Text: TAF VGHS 182300Z 1900/2006 00000KT 3200 HZ NSC
Forecast period: 0000 to 0600 UTC 19 February 2019
Forecast type: FROM: standard forecast or significant change
Winds: calm
Visibility: 1.99 miles (3.20 km)
Ceiling: unknown
Clouds: missing
Weather: HZ  (haze)
Text: TEMPO 1900/1904 30004KT 2500 BR/HZ SCT015
Forecast period: 0000 to 0400 UTC 19 February 2019
Forecast type: TEMPORARY: The following changes expected for less than half the time period
Winds: from the WNW (300 degrees) at 5 MPH (4 knots; 2.1 m/s)
Visibility: 1.55 miles (2.49 km)
Ceiling: at least 12,000 feet AGL
Clouds: scattered clouds at 1500 feet AGL
Weather: HZ BR  (haze, mist)
Text: BECMG 1906/1908 32006KT 3200 HZ NSC
Forecast period: 0600 to 2100 UTC 19 February 2019
Forecast type: BECOMING: Conditions expected to become as follows by 0800 UTC 19 February 2019
Winds: from the NW (320 degrees) at 7 MPH (6 knots; 3.1 m/s)
Visibility: 1.99 miles (3.20 km)
Ceiling: unknown
Clouds: missing
Weather: HZ  (haze)
Text: BECMG 1921/1923 28005KT 2500 BR/HZ SCT015
Forecast period: 2100 UTC 19 February 2019 to 0500 UTC 20 February 2019
Forecast type: BECOMING: Conditions expected to become as follows by 2300 UTC 19 February 2019
Winds: from the W (280 degrees) at 6 MPH (5 knots; 2.6 m/s)
Visibility: 1.55 miles (2.49 km)
Ceiling: at least 12,000 feet AGL
Clouds: scattered clouds at 1500 feet AGL
Weather: HZ BR  (haze, mist)
Text: TEMPO 1923/2004 00000KT 1000 BR/MIFG SCT008
Forecast period: 2300 UTC 19 February 2019 to 0400 UTC 20 February 2019
Forecast type: TEMPORARY: The following changes expected for less than half the time period
Winds: calm
Visibility: 0.62 miles (1.00 km)
Ceiling: at least 12,000 feet AGL
Clouds: scattered clouds at 800 feet AGL
Weather: MIFG BR  (shallow fog, mist)
Text: BECMG 2005/2007 29006KT 3200 HZ NSC
Forecast period: 0500 to 0600 UTC 20 February 2019
Forecast type: BECOMING: Conditions expected to become as follows by 0700 UTC 20 February 2019
Winds: from the WNW (290 degrees) at 7 MPH (6 knots; 3.1 m/s)
Visibility: 1.99 miles (3.20 km)
Ceiling: unknown
Clouds: missing
Weather: HZ  (haze)